createdAt,value
2019-05-23T00:00:34.287Z,6.58
2019-05-23T00:03:04.541Z,6.75
2019-05-23T00:05:34.474Z,5.67
2019-05-23T00:08:04.207Z,6.15
2019-05-23T00:10:34.106Z,6.00
2019-05-23T00:13:04.039Z,6.28
2019-05-23T00:15:36.030Z,6.33
2019-05-23T00:18:06.041Z,7.53
2019-05-23T00:20:34.455Z,6.12
2019-05-23T00:23:03.155Z,6.10
2019-05-23T00:25:31.831Z,7.15
2019-05-23T00:28:01.403Z,6.95
2019-05-23T00:30:31.636Z,6.92
2019-05-23T00:33:04.954Z,6.95
2019-05-23T00:35:33.728Z,7.08
2019-05-23T00:38:03.911Z,7.20
2019-05-23T00:40:33.583Z,7.42
2019-05-23T00:43:04.191Z,7.55
2019-05-23T00:45:33.291Z,8.53
2019-05-23T00:48:02.208Z,7.80
2019-05-23T00:50:33.171Z,7.58
2019-05-23T00:53:02.215Z,6.97
2019-05-23T00:55:31.680Z,6.35
2019-05-23T00:58:02.322Z,7.37
2019-05-23T01:00:32.924Z,7.30
2019-05-23T01:03:02.600Z,6.45
2019-05-23T01:05:31.779Z,8.23
2019-05-23T01:08:01.762Z,7.70
2019-05-23T01:10:31.312Z,7.45
2019-05-23T01:13:00.759Z,7.75
2019-05-23T01:15:29.557Z,8.33
2019-05-23T01:17:59.122Z,8.05
2019-05-23T01:20:42.404Z,8.18
2019-05-23T01:23:11.640Z,7.70
2019-05-23T01:25:40.876Z,7.20
2019-05-23T01:28:10.000Z,7.65
2019-05-23T01:30:40.600Z,7.20
2019-05-23T01:33:10.376Z,7.67
2019-05-23T01:35:41.682Z,7.80
2019-05-23T01:38:11.197Z,7.80
2019-05-23T01:40:41.120Z,7.70
2019-05-23T01:43:10.838Z,7.50
2019-05-23T01:45:40.517Z,7.37
2019-05-23T01:48:10.425Z,7.87
2019-05-23T01:50:39.088Z,7.60
2019-05-23T01:53:07.739Z,7.28
2019-05-23T01:55:36.793Z,6.85
2019-05-23T01:58:05.502Z,7.65
2019-05-23T02:00:35.447Z,7.37
2019-05-23T02:03:05.636Z,9.13
2019-05-23T02:05:34.140Z,8.90
2019-05-23T02:08:02.976Z,8.35
2019-05-23T02:10:31.721Z,8.85
2019-05-23T02:13:00.252Z,7.87
2019-05-23T02:15:30.195Z,6.75
2019-05-23T02:17:59.115Z,7.87
2019-05-23T02:20:29.179Z,8.18
2019-05-23T02:22:58.705Z,8.03
2019-05-23T02:25:27.069Z,8.03
2019-05-23T02:27:55.603Z,7.40
2019-05-23T02:30:34.650Z,8.13
2019-05-23T02:32:54.850Z,8.30
2019-05-23T02:35:23.613Z,7.12
2019-05-23T02:37:59.226Z,8.33
2019-05-23T02:40:31.914Z,8.83
2019-05-23T02:43:08.399Z,8.80
2019-05-23T02:45:42.427Z,8.03
2019-05-23T02:48:15.451Z,9.10
2019-05-23T02:50:45.646Z,7.62
2019-05-23T02:53:16.151Z,7.72
2019-05-23T02:55:44.942Z,8.20
2019-05-23T02:58:24.338Z,8.30
2019-05-23T03:01:01.594Z,8.45
2019-05-23T03:03:30.675Z,8.65
2019-05-23T03:06:02.527Z,7.72
2019-05-23T03:08:31.834Z,7.97
2019-05-23T03:11:12.505Z,7.97
2019-05-23T03:13:42.305Z,8.10
2019-05-23T03:16:12.227Z,7.62
2019-05-23T03:18:42.282Z,8.33
2019-05-23T03:21:12.374Z,8.68
2019-05-23T03:23:41.228Z,8.98
2019-05-23T03:26:13.899Z,9.33
2019-05-23T03:28:42.932Z,8.40
2019-05-23T03:31:28.675Z,8.88
2019-05-23T03:33:43.145Z,9.13
2019-05-23T03:36:11.944Z,8.78
2019-05-23T03:38:41.461Z,9.40
2019-05-23T03:41:11.520Z,8.58
2019-05-23T03:43:41.883Z,8.65
2019-05-23T03:46:15.426Z,10.08
2019-05-23T03:48:45.160Z,10.13
2019-05-23T03:51:13.860Z,10.40
2019-05-23T03:53:42.329Z,9.38
2019-05-23T03:56:11.040Z,9.15
2019-05-23T03:58:40.813Z,9.03
2019-05-23T04:01:11.210Z,9.15
2019-05-23T04:03:40.615Z,11.15
2019-05-23T04:06:09.353Z,10.03
2019-05-23T04:08:37.874Z,10.35
2019-05-23T04:11:06.227Z,8.93
2019-05-23T04:13:34.875Z,9.00
2019-05-23T04:16:03.727Z,9.70
2019-05-23T04:18:32.448Z,10.08
2019-05-23T04:21:01.449Z,10.98
2019-05-23T04:23:29.952Z,10.23
2019-05-23T04:25:58.595Z,10.38
2019-05-23T04:28:27.140Z,10.20
2019-05-23T04:30:56.979Z,10.00
2019-05-23T04:33:25.363Z,10.00
2019-05-23T04:35:53.827Z,9.88
2019-05-23T04:38:22.325Z,10.38
2019-05-23T04:40:50.799Z,10.00
2019-05-23T04:43:19.134Z,9.43
2019-05-23T04:45:47.705Z,11.18
2019-05-23T04:48:16.742Z,10.10
2019-05-23T04:50:45.744Z,8.53
2019-05-23T04:53:14.626Z,9.43
2019-05-23T04:55:43.879Z,9.00
2019-05-23T04:58:12.890Z,9.60
2019-05-23T05:00:41.262Z,9.38
2019-05-23T05:03:09.909Z,8.50
2019-05-23T05:05:38.757Z,8.35
2019-05-23T05:08:07.679Z,7.35
2019-05-23T05:10:36.296Z,9.15
2019-05-23T05:13:05.467Z,9.30
2019-05-23T05:15:34.367Z,8.18
2019-05-23T05:18:04.460Z,9.60
2019-05-23T05:20:32.695Z,8.10
2019-05-23T05:23:01.119Z,8.15
2019-05-23T05:25:29.671Z,8.73
2019-05-23T05:27:58.401Z,8.88
2019-05-23T05:30:27.040Z,8.73
2019-05-23T05:32:56.682Z,8.18
2019-05-23T05:35:25.623Z,7.87
2019-05-23T05:37:53.955Z,8.10
2019-05-23T05:40:22.274Z,7.37
2019-05-23T05:42:50.663Z,8.35
2019-05-23T05:45:19.904Z,7.37
2019-05-23T05:47:48.205Z,7.83
2019-05-23T05:50:17.300Z,7.55
2019-05-23T05:52:45.840Z,7.72
2019-05-23T05:55:14.362Z,7.80
2019-05-23T05:57:42.695Z,7.25
2019-05-23T06:00:28.881Z,7.55
2019-05-23T06:03:04.511Z,7.70
2019-05-23T06:05:37.105Z,7.55
2019-05-23T06:08:07.156Z,7.53
2019-05-23T06:10:36.139Z,7.08
2019-05-23T06:13:04.509Z,7.12
2019-05-23T06:15:34.727Z,8.13
2019-05-23T06:18:03.532Z,6.67
2019-05-23T06:20:32.241Z,6.17
2019-05-23T06:23:00.541Z,6.45
2019-05-23T06:25:28.983Z,6.15
2019-05-23T06:27:57.676Z,6.60
2019-05-23T06:30:26.009Z,7.08
2019-05-23T06:32:54.438Z,6.62
2019-05-23T06:35:23.132Z,6.15
2019-05-23T06:37:51.731Z,5.85
2019-05-23T06:40:20.980Z,5.90
2019-05-23T06:42:50.944Z,6.35
2019-05-23T06:45:19.624Z,6.03
2019-05-23T06:47:47.992Z,5.65
2019-05-23T06:50:17.604Z,5.25
2019-05-23T06:52:46.200Z,5.65
2019-05-23T06:55:14.803Z,5.87
2019-05-23T06:57:43.102Z,6.47
2019-05-23T07:00:13.403Z,5.53
2019-05-23T07:02:41.867Z,4.95
2019-05-23T07:05:10.302Z,4.65
2019-05-23T07:07:39.152Z,4.85
2019-05-23T07:10:08.092Z,5.12
2019-05-23T07:12:37.016Z,5.37
2019-05-23T07:15:06.357Z,4.45
2019-05-23T07:17:35.164Z,4.83
2019-05-23T07:20:04.595Z,4.33
2019-05-23T07:22:32.860Z,4.25
2019-05-23T07:25:01.161Z,4.00
2019-05-23T07:27:29.555Z,4.10
2019-05-23T07:29:57.924Z,4.83
2019-05-23T07:32:26.264Z,4.90
2019-05-23T07:34:54.562Z,5.00
2019-05-23T07:37:22.939Z,4.67
2019-05-23T07:39:51.425Z,3.87
2019-05-23T07:42:20.145Z,4.92
2019-05-23T07:44:50.449Z,4.65
2019-05-23T07:47:19.434Z,4.47
2019-05-23T07:49:48.645Z,4.17
2019-05-23T07:52:17.315Z,4.10
2019-05-23T07:54:53.054Z,4.15
2019-05-23T07:57:21.379Z,4.22
2019-05-23T07:59:50.200Z,4.03
2019-05-23T08:02:25.425Z,4.15
2019-05-23T08:04:52.107Z,3.80
2019-05-23T08:07:21.465Z,3.42
2019-05-23T08:09:49.951Z,3.45
2019-05-23T08:12:18.623Z,3.60
2019-05-23T08:14:46.871Z,3.12
2019-05-23T08:17:15.234Z,2.92
2019-05-23T08:19:49.735Z,3.70
2019-05-23T08:22:13.647Z,3.40
2019-05-23T08:24:41.986Z,2.62
2019-05-23T08:27:10.442Z,3.20
2019-05-23T08:29:38.826Z,3.42
2019-05-23T08:32:07.606Z,3.20
2019-05-23T08:34:41.480Z,3.20
2019-05-23T08:37:08.091Z,3.08
2019-05-23T08:39:36.856Z,3.17
2019-05-23T08:42:05.902Z,2.75
2019-05-23T08:44:34.471Z,2.70
2019-05-23T08:47:04.538Z,2.83
2019-05-23T08:49:33.300Z,3.60
2019-05-23T08:52:01.756Z,3.35
2019-05-23T08:54:30.510Z,2.90
2019-05-23T08:56:58.834Z,3.15
2019-05-23T08:59:27.398Z,3.80
2019-05-23T09:01:55.898Z,3.75
2019-05-23T09:04:24.440Z,3.27
2019-05-23T09:06:53.134Z,3.70
2019-05-23T09:09:29.629Z,3.22
2019-05-23T09:11:52.542Z,3.58
2019-05-23T09:14:21.081Z,3.62
2019-05-23T09:16:49.726Z,3.00
2019-05-23T09:19:18.127Z,3.60
2019-05-23T09:21:46.829Z,2.50
2019-05-23T09:24:15.085Z,3.40
2019-05-23T09:26:43.359Z,4.45
2019-05-23T09:29:12.728Z,4.12
2019-05-23T09:31:40.985Z,4.90
2019-05-23T09:34:09.291Z,4.95
2019-05-23T09:36:37.622Z,4.80
2019-05-23T09:39:07.760Z,5.65
2019-05-23T09:41:36.360Z,5.87
2019-05-23T09:44:05.273Z,5.12
2019-05-23T09:46:33.609Z,5.72
2019-05-23T09:49:01.980Z,5.47
2019-05-23T09:51:30.315Z,4.72
2019-05-23T09:53:58.788Z,4.20
2019-05-23T09:56:27.207Z,5.28
2019-05-23T09:58:55.877Z,5.03
2019-05-23T10:01:25.109Z,5.53
2019-05-23T10:03:53.816Z,4.90
2019-05-23T10:06:22.142Z,5.42
2019-05-23T10:08:50.462Z,5.08
2019-05-23T10:11:18.833Z,5.60
2019-05-23T10:13:47.096Z,5.30
2019-05-23T10:16:15.418Z,5.35
2019-05-23T10:18:43.941Z,5.40
2019-05-23T10:21:12.467Z,5.37
2019-05-23T10:23:40.819Z,4.62
2019-05-23T10:26:10.735Z,5.20
2019-05-23T10:28:39.106Z,4.72
2019-05-23T10:31:09.080Z,5.50
2019-05-23T10:33:37.799Z,4.58
2019-05-23T10:36:06.245Z,4.83
2019-05-23T10:38:34.526Z,4.78
2019-05-23T10:41:03.327Z,5.70
2019-05-23T10:43:31.689Z,5.40
2019-05-23T10:46:00.014Z,5.45
2019-05-23T10:48:29.036Z,4.90
2019-05-23T10:50:57.758Z,5.45
2019-05-23T10:53:26.491Z,4.75
2019-05-23T10:55:54.960Z,6.45
2019-05-23T10:58:23.295Z,6.12
2019-05-23T11:00:52.641Z,5.95
2019-05-23T11:03:21.326Z,5.72
2019-05-23T11:05:49.839Z,5.78
2019-05-23T11:08:18.586Z,5.80
2019-05-23T11:10:47.531Z,5.85
2019-05-23T11:13:15.849Z,5.83
2019-05-23T11:15:44.564Z,5.40
2019-05-23T11:18:13.295Z,5.85
2019-05-23T11:20:42.325Z,6.30
2019-05-23T11:23:11.836Z,6.00
2019-05-23T11:25:40.212Z,6.22
2019-05-23T11:28:08.480Z,6.85
2019-05-23T11:30:44.043Z,7.15
2019-05-23T11:33:13.933Z,6.62
2019-05-23T11:35:43.493Z,7.62
2019-05-23T11:38:12.438Z,6.33
2019-05-23T11:40:41.070Z,6.25
2019-05-23T11:43:09.393Z,6.47
2019-05-23T11:45:46.417Z,5.65
2019-05-23T11:48:16.129Z,5.97
2019-05-23T11:50:45.096Z,6.40
2019-05-23T11:53:13.450Z,5.53
2019-05-23T11:55:41.984Z,5.65
2019-05-23T11:58:10.531Z,6.10
2019-05-23T12:00:54.492Z,5.05
2019-05-23T12:03:23.030Z,5.58
2019-05-23T12:05:51.911Z,5.58
2019-05-23T12:08:20.230Z,6.03
2019-05-23T12:10:48.688Z,4.95
2019-05-23T12:13:17.301Z,5.22
2019-05-23T12:15:47.198Z,5.22
2019-05-23T12:18:15.603Z,4.95
2019-05-23T12:20:43.967Z,6.10
2019-05-23T12:23:12.291Z,5.83
2019-05-23T12:25:41.597Z,5.67
2019-05-23T12:28:10.878Z,5.55
2019-05-23T12:30:39.558Z,4.92
2019-05-23T12:33:08.232Z,5.65
2019-05-23T12:35:36.522Z,5.30
2019-05-23T12:38:05.327Z,4.95
2019-05-23T12:40:33.686Z,6.33
2019-05-23T12:43:02.092Z,6.55
2019-05-23T12:45:30.443Z,5.62
2019-05-23T12:48:06.335Z,6.15
2019-05-23T12:50:36.385Z,6.97
2019-05-23T12:53:04.675Z,5.62
2019-05-23T12:55:33.007Z,5.72
2019-05-23T12:58:01.366Z,6.45
2019-05-23T13:00:34.631Z,6.67
2019-05-23T13:03:04.395Z,7.15
2019-05-23T13:05:33.447Z,6.08
2019-05-23T13:08:05.943Z,6.90
2019-05-23T13:10:32.856Z,8.23
2019-05-23T13:13:01.144Z,7.58
2019-05-23T13:15:29.948Z,7.50
2019-05-23T13:17:58.715Z,7.47
2019-05-23T13:20:27.111Z,7.78
2019-05-23T13:22:55.421Z,7.50
2019-05-23T13:25:25.048Z,6.70
2019-05-23T13:27:53.306Z,7.78
2019-05-23T13:30:21.743Z,6.97
2019-05-23T13:32:50.477Z,6.92
2019-05-23T13:35:19.257Z,7.12
2019-05-23T13:37:53.627Z,9.33
2019-05-23T13:40:17.976Z,8.70
2019-05-23T13:42:46.853Z,8.93
2019-05-23T13:45:15.320Z,8.05
2019-05-23T13:47:44.121Z,8.45
2019-05-23T13:50:12.680Z,8.48
2019-05-23T13:52:41.833Z,8.63
2019-05-23T13:55:10.158Z,8.25
2019-05-23T13:57:38.854Z,9.25
2019-05-23T14:00:08.659Z,8.95
2019-05-23T14:02:37.100Z,9.23
2019-05-23T14:05:06.332Z,8.93
2019-05-23T14:07:35.082Z,9.28
2019-05-23T14:10:05.359Z,8.85
2019-05-23T14:12:33.727Z,9.60
2019-05-23T14:15:02.503Z,9.33
2019-05-23T14:17:34.906Z,9.50
2019-05-23T14:20:04.144Z,9.35
2019-05-23T14:22:34.043Z,9.83
2019-05-23T14:25:02.914Z,9.53
2019-05-23T14:27:49.345Z,8.60
2019-05-23T14:30:37.299Z,10.18
2019-05-23T14:33:23.246Z,9.60
2019-05-23T14:35:53.146Z,9.45
2019-05-23T14:38:30.838Z,10.18
2019-05-23T14:40:51.685Z,8.30
2019-05-23T14:43:24.577Z,9.60
2019-05-23T14:45:54.576Z,8.90
2019-05-23T14:48:33.554Z,8.33
2019-05-23T14:51:12.317Z,8.28
2019-05-23T14:54:01.060Z,7.90
2019-05-23T14:56:31.047Z,8.15
2019-05-23T14:58:59.374Z,8.35
2019-05-23T15:01:29.968Z,8.88
2019-05-23T15:03:58.307Z,8.53
2019-05-23T15:06:26.634Z,8.50
2019-05-23T15:08:55.032Z,8.83
2019-05-23T15:11:23.564Z,7.33
2019-05-23T15:13:51.989Z,6.65
2019-05-23T15:16:20.469Z,7.70
2019-05-23T15:18:48.852Z,8.10
2019-05-23T15:21:17.326Z,6.70
2019-05-23T15:23:45.798Z,7.33
2019-05-23T15:26:23.155Z,6.62
2019-05-23T15:28:44.568Z,7.08
2019-05-23T15:31:13.400Z,6.45
2019-05-23T15:33:41.641Z,6.65
2019-05-23T15:36:10.499Z,6.72
2019-05-23T15:38:38.836Z,6.85
2019-05-23T15:41:07.313Z,7.58
2019-05-23T15:43:35.563Z,6.17
2019-05-23T15:46:04.031Z,5.70
2019-05-23T15:48:32.751Z,5.55
2019-05-23T15:51:01.113Z,6.28
2019-05-23T15:53:31.083Z,6.40
2019-05-23T15:56:26.079Z,5.97
2019-05-23T15:58:44.358Z,7.17
2019-05-23T16:01:16.992Z,6.33
2019-05-23T16:03:46.995Z,6.37
2019-05-23T16:06:16.992Z,6.25
2019-05-23T16:08:45.300Z,5.45
2019-05-23T16:11:17.440Z,5.78
2019-05-23T16:13:44.972Z,5.33
2019-05-23T16:16:13.239Z,6.42
2019-05-23T16:18:41.939Z,5.78
2019-05-23T16:21:11.139Z,6.00
2019-05-23T16:23:39.794Z,6.15
2019-05-23T16:26:11.447Z,5.97
2019-05-23T16:28:38.626Z,5.35
2019-05-23T16:31:06.990Z,6.65
2019-05-23T16:33:35.373Z,5.65
2019-05-23T16:36:04.212Z,6.05
2019-05-23T16:38:32.906Z,12.78
2019-05-23T16:41:01.188Z,15.18
2019-05-23T16:43:29.556Z,15.68
2019-05-23T16:45:57.959Z,15.28
2019-05-23T16:48:26.594Z,15.10
2019-05-23T16:50:54.921Z,15.15
2019-05-23T16:53:23.329Z,15.45
2019-05-23T16:56:05.416Z,14.55
2019-05-23T16:58:35.422Z,14.30
2019-05-23T17:01:24.074Z,15.78
2019-05-23T17:03:57.802Z,15.03
2019-05-23T17:06:33.829Z,15.48
2019-05-23T17:09:12.898Z,14.83
2019-05-23T17:11:45.856Z,15.30
2019-05-23T17:14:24.922Z,15.48
2019-05-23T17:17:12.810Z,14.78
2019-05-23T17:20:17.875Z,15.75
2019-05-23T17:22:41.861Z,15.50
2019-05-23T17:25:34.446Z,15.28
2019-05-23T17:28:22.702Z,15.08
2019-05-23T17:30:52.986Z,14.30
2019-05-23T17:33:22.095Z,15.15
2019-05-23T17:35:58.538Z,15.65
2019-05-23T17:38:27.375Z,14.93
2019-05-23T17:41:14.192Z,16.10
2019-05-23T17:43:42.733Z,15.05
2019-05-23T17:46:19.620Z,15.18
2019-05-23T17:48:51.510Z,13.80
2019-05-23T17:51:21.959Z,13.70
2019-05-23T17:54:06.665Z,14.23
2019-05-23T17:56:37.399Z,13.78
2019-05-23T17:59:10.751Z,13.95
2019-05-23T18:01:39.590Z,14.20
2019-05-23T18:04:17.596Z,14.85
2019-05-23T18:06:47.567Z,13.90
2019-05-23T18:09:16.009Z,14.07
2019-05-23T18:11:50.644Z,13.98
2019-05-23T18:14:22.236Z,12.90
2019-05-23T18:16:50.746Z,13.88
2019-05-23T18:19:21.106Z,13.75
2019-05-23T18:21:49.503Z,13.88
2019-05-23T18:24:17.834Z,12.75
2019-05-23T18:26:52.025Z,12.60
2019-05-23T18:29:20.451Z,11.63
2019-05-23T18:31:56.513Z,12.00
2019-05-23T18:34:25.999Z,14.23
2019-05-23T18:37:01.140Z,13.18
2019-05-23T18:39:35.485Z,12.98
2019-05-23T18:42:25.111Z,12.63
2019-05-23T18:44:53.735Z,12.25
2019-05-23T18:47:23.773Z,12.63
2019-05-23T18:49:54.708Z,11.45
2019-05-23T18:52:24.017Z,11.70
2019-05-23T18:54:53.395Z,12.18
2019-05-23T18:57:21.787Z,11.28
2019-05-23T19:00:01.220Z,10.72
2019-05-23T19:02:32.283Z,11.65
2019-05-23T19:05:03.907Z,11.03
2019-05-23T19:07:41.534Z,10.63
2019-05-23T19:10:11.619Z,10.78
2019-05-23T19:12:44.986Z,9.15
2019-05-23T19:15:23.158Z,9.60
2019-05-23T19:17:52.565Z,9.28
2019-05-23T19:20:25.442Z,8.53
2019-05-23T19:22:53.839Z,7.92
2019-05-23T19:25:22.934Z,8.95
2019-05-23T19:27:52.329Z,9.40
2019-05-23T19:30:28.663Z,8.15
2019-05-23T19:32:57.950Z,7.87
2019-05-23T19:35:27.717Z,8.08
2019-05-23T19:37:57.148Z,8.28
2019-05-23T19:40:26.330Z,8.43
2019-05-23T19:42:55.713Z,8.05
2019-05-23T19:45:30.109Z,8.58
2019-05-23T19:47:59.453Z,7.40
2019-05-23T19:50:28.461Z,7.53
2019-05-23T19:52:56.845Z,7.03
2019-05-23T19:55:26.876Z,8.38
2019-05-23T19:57:55.507Z,7.50
2019-05-23T20:00:26.325Z,7.67
2019-05-23T20:03:04.438Z,7.00
2019-05-23T20:05:41.822Z,8.25
2019-05-23T20:08:10.258Z,7.20
2019-05-23T20:10:49.479Z,7.10
2019-05-23T20:13:19.832Z,7.60
2019-05-23T20:15:48.678Z,7.53
2019-05-23T20:18:29.018Z,7.45
2019-05-23T20:20:58.224Z,7.47
2019-05-23T20:23:26.604Z,7.17
2019-05-23T20:25:57.294Z,7.95
2019-05-23T20:28:27.565Z,6.90
2019-05-23T20:30:56.428Z,7.10
2019-05-23T20:33:34.029Z,7.00
2019-05-23T20:36:06.023Z,7.17
2019-05-23T20:38:37.315Z,7.40
2019-05-23T20:41:05.708Z,7.03
2019-05-23T20:43:34.066Z,8.48
2019-05-23T20:46:02.900Z,7.78
2019-05-23T20:48:42.163Z,11.12
2019-05-23T20:51:13.010Z,10.60
2019-05-23T20:53:41.762Z,9.05
2019-05-23T20:56:11.464Z,7.12
2019-05-23T20:58:43.006Z,6.65
2019-05-23T21:01:16.159Z,5.40
2019-05-23T21:03:43.584Z,5.42
2019-05-23T21:06:14.691Z,6.20
2019-05-23T21:08:43.415Z,6.20
2019-05-23T21:11:19.841Z,6.25
2019-05-23T21:14:00.294Z,6.83
2019-05-23T21:16:32.702Z,8.20
2019-05-23T21:19:01.101Z,8.50
2019-05-23T21:21:30.811Z,7.40
2019-05-23T21:23:59.196Z,7.95
2019-05-23T21:26:54.289Z,8.40
2019-05-23T21:29:25.731Z,7.87
2019-05-23T21:31:58.113Z,8.25
2019-05-23T21:34:26.517Z,7.40
2019-05-23T21:36:55.182Z,8.50
2019-05-23T21:39:26.447Z,7.08
2019-05-23T21:41:54.839Z,7.35
2019-05-23T21:44:23.616Z,6.62
2019-05-23T21:46:53.890Z,6.37
2019-05-23T21:49:22.282Z,7.60
2019-05-23T21:51:51.858Z,7.15
2019-05-23T21:54:20.542Z,6.55
2019-05-23T21:56:48.907Z,6.97
2019-05-23T21:59:26.593Z,6.55
2019-05-23T22:02:03.802Z,6.97
2019-05-23T22:04:39.493Z,7.17
2019-05-23T22:07:09.821Z,7.65
2019-05-23T22:09:38.762Z,8.58
2019-05-23T22:12:08.796Z,10.28
2019-05-23T22:14:38.085Z,10.03
2019-05-23T22:17:06.878Z,9.65
2019-05-23T22:19:35.314Z,10.98
2019-05-23T22:22:14.818Z,9.78
2019-05-23T22:24:43.173Z,10.28
2019-05-23T22:27:16.256Z,10.13
2019-05-23T22:29:44.784Z,9.90
2019-05-23T22:32:23.053Z,11.70
2019-05-23T22:35:06.988Z,10.70
2019-05-23T22:37:35.284Z,11.30
2019-05-23T22:40:05.524Z,10.45
2019-05-23T22:42:34.653Z,10.45
2019-05-23T22:45:05.152Z,10.58
2019-05-23T22:47:33.852Z,10.50
2019-05-23T22:50:14.775Z,10.65
2019-05-23T22:52:55.168Z,10.85
2019-05-23T22:55:23.502Z,11.63
2019-05-23T22:57:51.787Z,11.80
2019-05-23T23:00:25.233Z,10.38
2019-05-23T23:02:57.678Z,10.70
2019-05-23T23:05:26.069Z,12.53
2019-05-23T23:07:54.420Z,10.80
2019-05-23T23:10:23.181Z,12.25
2019-05-23T23:13:01.589Z,12.28
2019-05-23T23:15:31.702Z,12.55
2019-05-23T23:18:00.146Z,11.60
2019-05-23T23:20:29.407Z,12.20
2019-05-23T23:22:58.191Z,13.88
2019-05-23T23:25:26.866Z,13.43
2019-05-23T23:27:55.566Z,12.47
2019-05-23T23:30:25.603Z,13.18
2019-05-23T23:32:53.915Z,10.95
2019-05-23T23:35:22.228Z,12.43
2019-05-23T23:37:50.908Z,13.10
2019-05-23T23:40:19.593Z,12.00
2019-05-23T23:42:47.960Z,12.63
2019-05-23T23:45:34.343Z,13.03
2019-05-23T23:48:21.852Z,13.28
2019-05-23T23:51:08.618Z,15.23
2019-05-23T23:53:55.328Z,15.28
2019-05-23T23:56:41.417Z,13.48
2019-05-23T23:59:11.536Z,12.98
